createdAt,value
2019-01-16T00:00:47.246Z,100593.84
2019-01-16T00:03:34.314Z,100602.63
2019-01-16T00:06:30.068Z,100603.71
2019-01-16T00:09:15.641Z,100590.28
2019-01-16T00:12:20.139Z,100597.41
2019-01-16T00:15:07.467Z,100588.11
2019-01-16T00:18:07.274Z,100632.39
2019-01-16T00:20:49.481Z,100604.78
2019-01-16T00:23:35.062Z,100596.20
2019-01-16T00:26:21.009Z,100577.09
2019-01-16T00:29:10.711Z,100612.48
2019-01-16T00:32:00.497Z,100596.94
2019-01-16T00:34:49.721Z,100600.55
2019-01-16T00:37:36.394Z,100583.84
2019-01-16T00:40:43.013Z,100617.25
2019-01-16T00:43:21.124Z,100591.47
2019-01-16T00:46:06.483Z,100621.45
2019-01-16T00:48:53.192Z,100600.95
2019-01-16T00:51:51.835Z,100596.17
2019-01-16T00:54:42.148Z,100597.48
2019-01-16T00:57:28.455Z,100586.90
2019-01-16T01:00:14.333Z,100597.72
2019-01-16T01:02:58.832Z,100587.86
2019-01-16T01:05:51.417Z,100582.07
2019-01-16T01:08:44.270Z,100603.19
2019-01-16T01:11:29.679Z,100594.52
2019-01-16T01:14:23.010Z,100606.02
2019-01-16T01:17:24.938Z,100601.84
2019-01-16T01:20:13.199Z,100604.86
2019-01-16T01:23:05.800Z,100600.86
2019-01-16T01:25:55.523Z,100599.02
2019-01-16T01:28:41.439Z,100594.05
2019-01-16T01:31:34.645Z,100594.85
2019-01-16T01:34:18.922Z,100586.22
2019-01-16T01:37:19.152Z,100583.69
2019-01-16T01:40:03.709Z,100571.49
2019-01-16T01:42:50.646Z,100582.28
2019-01-16T01:45:40.121Z,100580.28
2019-01-16T01:48:39.759Z,100587.28
2019-01-16T01:51:13.596Z,100578.88
2019-01-16T01:54:12.051Z,100576.51
2019-01-16T01:56:51.768Z,100562.06
2019-01-16T01:59:37.759Z,100579.56
2019-01-16T02:02:14.223Z,100580.44
2019-01-16T02:05:01.259Z,100566.66
2019-01-16T02:07:48.763Z,100570.08
2019-01-16T02:10:35.717Z,100585.59
2019-01-16T02:13:16.346Z,100577.89
2019-01-16T02:16:02.052Z,100574.23
2019-01-16T02:19:09.201Z,100582.98
2019-01-16T02:21:56.347Z,100577.27
2019-01-16T02:24:41.286Z,100573.27
2019-01-16T02:27:32.019Z,100573.50
2019-01-16T02:30:10.191Z,100574.44
2019-01-16T02:33:00.906Z,100574.91
2019-01-16T02:35:54.567Z,100583.09
2019-01-16T02:38:41.598Z,100591.66
2019-01-16T02:41:44.794Z,100574.91
2019-01-16T02:44:38.578Z,100576.21
2019-01-16T02:47:37.350Z,100599.12
2019-01-16T02:50:14.718Z,100561.86
2019-01-16T02:53:20.705Z,100570.30
2019-01-16T02:55:57.991Z,100556.06
2019-01-16T02:58:45.619Z,100562.36
2019-01-16T03:01:30.282Z,100567.93
2019-01-16T03:04:15.882Z,100552.53
2019-01-16T03:07:02.560Z,100580.77
2019-01-16T03:09:36.589Z,100552.57
2019-01-16T03:12:21.919Z,100558.56
2019-01-16T03:15:07.266Z,100548.87
2019-01-16T03:17:53.881Z,100537.47
2019-01-16T03:20:33.789Z,100541.13
2019-01-16T03:23:35.649Z,100545.31
2019-01-16T03:26:35.550Z,100553.10
2019-01-16T03:29:14.558Z,100538.63
2019-01-16T03:32:13.566Z,100529.17
2019-01-16T03:34:52.320Z,100527.12
2019-01-16T03:37:30.929Z,100529.16
2019-01-16T03:40:16.193Z,100521.69
2019-01-16T03:42:57.380Z,100510.78
2019-01-16T03:45:31.862Z,100525.11
2019-01-16T03:48:19.322Z,100519.92
2019-01-16T03:51:04.911Z,100509.10
2019-01-16T03:53:53.203Z,100507.23
2019-01-16T03:56:42.901Z,100501.05
2019-01-16T03:59:27.985Z,100501.52
2019-01-16T04:02:23.963Z,100497.83
2019-01-16T04:05:16.811Z,100499.27
2019-01-16T04:08:02.391Z,100507.47
2019-01-16T04:10:58.156Z,100496.78
2019-01-16T04:13:53.849Z,100499.64
2019-01-16T04:16:34.372Z,100505.80
2019-01-16T04:19:22.064Z,100492.27
2019-01-16T04:22:03.443Z,100504.84
2019-01-16T04:24:59.247Z,100490.27
2019-01-16T04:27:45.922Z,100496.41
2019-01-16T04:30:28.712Z,100497.02
2019-01-16T04:33:13.953Z,100497.38
2019-01-16T04:36:05.803Z,100490.73
2019-01-16T04:38:52.496Z,100478.86
2019-01-16T04:41:37.992Z,100496.91
2019-01-16T04:44:14.890Z,100488.58
2019-01-16T04:47:10.892Z,100482.19
2019-01-16T04:50:12.673Z,100477.92
2019-01-16T04:53:04.694Z,100490.49
2019-01-16T04:56:06.710Z,100500.23
2019-01-16T04:58:52.349Z,100465.35
2019-01-16T05:01:44.968Z,100473.75
2019-01-16T05:04:22.384Z,100475.06
2019-01-16T05:06:58.731Z,100457.05
2019-01-16T05:09:40.871Z,100471.64
2019-01-16T05:12:31.570Z,100459.06
2019-01-16T05:15:12.805Z,100476.02
2019-01-16T05:17:50.203Z,100457.97
2019-01-16T05:20:35.603Z,100468.30
2019-01-16T05:23:27.198Z,100456.31
2019-01-16T05:26:32.022Z,100454.79
2019-01-16T05:29:17.887Z,100469.73
2019-01-16T05:32:11.030Z,100438.30
2019-01-16T05:35:07.669Z,100452.80
2019-01-16T05:37:52.954Z,100434.86
2019-01-16T05:40:40.159Z,100457.03
2019-01-16T05:43:21.949Z,100436.65
2019-01-16T05:46:19.468Z,100441.86
2019-01-16T05:49:06.325Z,100435.72
2019-01-16T05:51:53.347Z,100421.22
2019-01-16T05:54:39.643Z,100416.85
2019-01-16T05:57:28.043Z,100425.73
2019-01-16T06:00:13.240Z,100418.38
2019-01-16T06:02:57.997Z,100413.25
2019-01-16T06:06:00.294Z,100414.34
2019-01-16T06:08:46.984Z,100410.90
2019-01-16T06:11:31.566Z,100400.11
2019-01-16T06:14:10.031Z,100405.69
2019-01-16T06:16:56.173Z,100395.98
2019-01-16T06:19:37.915Z,100411.13
2019-01-16T06:22:26.925Z,100404.38
2019-01-16T06:25:13.076Z,100399.64
2019-01-16T06:27:58.382Z,100414.62
2019-01-16T06:30:54.620Z,100400.47
2019-01-16T06:33:48.178Z,100401.77
2019-01-16T06:36:34.847Z,100396.45
2019-01-16T06:39:28.960Z,100400.45
2019-01-16T06:42:18.216Z,100384.70
2019-01-16T06:44:59.225Z,100409.47
2019-01-16T06:47:50.022Z,100391.80
2019-01-16T06:50:36.423Z,100406.06
2019-01-16T06:53:21.959Z,100389.66
2019-01-16T06:56:07.539Z,100382.00
2019-01-16T06:58:52.459Z,100384.40
2019-01-16T07:01:38.249Z,100376.84
2019-01-16T07:04:34.418Z,100380.41
2019-01-16T07:07:21.898Z,100390.59
2019-01-16T07:10:02.183Z,100396.14
2019-01-16T07:12:57.951Z,100386.19
2019-01-16T07:15:51.340Z,100392.41
2019-01-16T07:18:43.983Z,100402.11
2019-01-16T07:21:33.565Z,100384.44
2019-01-16T07:24:14.640Z,100380.61
2019-01-16T07:27:02.469Z,100372.91
2019-01-16T07:29:58.000Z,100361.71
2019-01-16T07:32:54.159Z,100373.59
2019-01-16T07:35:41.009Z,100365.48
2019-01-16T07:38:44.413Z,100357.39
2019-01-16T07:41:40.440Z,100370.62
2019-01-16T07:44:26.650Z,100364.67
2019-01-16T07:47:10.186Z,100358.41
2019-01-16T07:50:17.181Z,100383.71
2019-01-16T07:52:59.172Z,100366.81
2019-01-16T07:55:45.055Z,100374.77
2019-01-16T07:58:30.720Z,100338.69
2019-01-16T08:01:16.501Z,100354.36
2019-01-16T08:04:18.598Z,100352.28
2019-01-16T08:07:02.640Z,100348.98
2019-01-16T08:09:56.002Z,100354.94
2019-01-16T08:12:41.912Z,100355.31
2019-01-16T08:15:28.804Z,100342.23
2019-01-16T08:18:19.718Z,100350.91
2019-01-16T08:21:06.246Z,100352.20
2019-01-16T08:24:02.414Z,100332.57
2019-01-16T08:26:45.507Z,100343.52
2019-01-16T08:29:37.602Z,100332.65
2019-01-16T08:32:19.497Z,100337.02
2019-01-16T08:34:58.627Z,100344.29
2019-01-16T08:37:46.628Z,100325.66
2019-01-16T08:40:32.729Z,100331.91
2019-01-16T08:43:18.340Z,100329.98
2019-01-16T08:46:05.547Z,100324.36
2019-01-16T08:48:51.121Z,100334.53
2019-01-16T08:51:30.061Z,100328.27
2019-01-16T08:54:35.254Z,100319.08
2019-01-16T08:57:20.802Z,100335.23
2019-01-16T09:00:22.144Z,100327.23
2019-01-16T09:03:00.143Z,100335.84
2019-01-16T09:05:45.812Z,100322.20
2019-01-16T09:08:35.762Z,100309.09
2019-01-16T09:11:24.262Z,100318.97
2019-01-16T09:14:23.069Z,100313.83
2019-01-16T09:17:10.271Z,100329.20
2019-01-16T09:20:03.370Z,100310.61
2019-01-16T09:22:45.192Z,100326.01
2019-01-16T09:25:34.919Z,100302.53
2019-01-16T09:28:15.014Z,100305.24
2019-01-16T09:31:04.680Z,100317.80
2019-01-16T09:33:54.187Z,100307.87
2019-01-16T09:36:49.983Z,100289.62
2019-01-16T09:39:35.496Z,100318.95
2019-01-16T09:42:20.780Z,100304.77
2019-01-16T09:45:13.260Z,100304.78
2019-01-16T09:47:57.574Z,100310.99
2019-01-16T09:50:47.792Z,100289.28
2019-01-16T09:53:38.319Z,100330.09
2019-01-16T09:56:38.107Z,100289.73
2019-01-16T09:59:34.007Z,100296.36
2019-01-16T10:02:21.841Z,100286.11
2019-01-16T10:05:08.075Z,100321.19
2019-01-16T10:07:49.621Z,100292.99
2019-01-16T10:10:36.790Z,100279.20
2019-01-16T10:13:10.650Z,100273.88
2019-01-16T10:16:03.194Z,100280.06
2019-01-16T10:18:54.408Z,100274.39
2019-01-16T10:21:40.962Z,100322.11
2019-01-16T10:24:18.297Z,100271.61
2019-01-16T10:27:05.213Z,100249.53
2019-01-16T10:29:57.208Z,100272.88
2019-01-16T10:32:57.202Z,100254.63
2019-01-16T10:35:40.603Z,100252.04
2019-01-16T10:38:27.098Z,100258.26
2019-01-16T10:41:13.928Z,100253.52
2019-01-16T10:44:03.381Z,100251.48
2019-01-16T10:46:48.497Z,100250.52
2019-01-16T10:49:38.438Z,100240.34
2019-01-16T10:52:26.056Z,100240.42
2019-01-16T10:55:08.140Z,100233.86
2019-01-16T10:58:08.096Z,100231.10
2019-01-16T11:00:54.178Z,100238.36
2019-01-16T11:03:45.176Z,100224.02
2019-01-16T11:06:35.613Z,100244.46
2019-01-16T11:09:29.360Z,100228.13
2019-01-16T11:12:17.025Z,100231.55
2019-01-16T11:15:19.465Z,100218.06
2019-01-16T11:18:05.350Z,100211.42
2019-01-16T11:21:02.265Z,100204.66
2019-01-16T11:23:47.886Z,100206.89
2019-01-16T11:26:47.042Z,100202.81
2019-01-16T11:29:32.459Z,100204.95
2019-01-16T11:32:37.602Z,100188.03
2019-01-16T11:35:27.974Z,100192.36
2019-01-16T11:38:07.813Z,100192.72
2019-01-16T11:40:44.991Z,100192.52
2019-01-16T11:43:30.175Z,100190.06
2019-01-16T11:46:14.563Z,100188.22
2019-01-16T11:48:57.885Z,100172.33
2019-01-16T11:51:42.744Z,100174.20
2019-01-16T11:54:30.241Z,100160.67
2019-01-16T11:57:23.227Z,100144.73
2019-01-16T12:00:09.625Z,100150.75
2019-01-16T12:02:57.319Z,100147.00
2019-01-16T12:05:53.262Z,100146.56
2019-01-16T12:08:30.532Z,100146.14
2019-01-16T12:11:18.184Z,100146.96
2019-01-16T12:14:04.894Z,100137.52
2019-01-16T12:16:50.269Z,100127.41
2019-01-16T12:19:36.929Z,100118.21
2019-01-16T12:22:33.073Z,100118.45
2019-01-16T12:25:28.629Z,100107.98
2019-01-16T12:28:21.794Z,100116.59
2019-01-16T12:31:13.070Z,100110.24
2019-01-16T12:33:56.115Z,100113.37
2019-01-16T12:36:42.024Z,100097.67
2019-01-16T12:39:43.818Z,100107.19
2019-01-16T12:42:42.868Z,100104.44
2019-01-16T12:45:21.887Z,100079.81
2019-01-16T12:48:26.870Z,100107.33
2019-01-16T12:51:12.834Z,100097.84
2019-01-16T12:54:03.126Z,100087.75
2019-01-16T12:57:08.059Z,100085.30
2019-01-16T12:59:52.987Z,100082.00
2019-01-16T13:02:32.943Z,100092.75
2019-01-16T13:05:23.579Z,100087.61
2019-01-16T13:08:02.610Z,100082.01
2019-01-16T13:10:58.580Z,100072.05
2019-01-16T13:13:59.166Z,100072.84
2019-01-16T13:16:36.547Z,100070.23
2019-01-16T13:19:23.359Z,100070.23
2019-01-16T13:22:28.347Z,100067.34
2019-01-16T13:25:22.386Z,100052.92
2019-01-16T13:28:06.840Z,100054.16
2019-01-16T13:30:43.625Z,100070.13
2019-01-16T13:33:37.330Z,100047.08
2019-01-16T13:36:16.071Z,100048.84
2019-01-16T13:39:13.051Z,100039.73
2019-01-16T13:41:51.856Z,100043.52
2019-01-16T13:44:52.417Z,100037.44
2019-01-16T13:47:37.832Z,100032.88
2019-01-16T13:50:26.043Z,100025.39
2019-01-16T13:53:11.574Z,100046.27
2019-01-16T13:56:15.431Z,100023.77
2019-01-16T13:58:52.771Z,100020.96
2019-01-16T14:01:36.735Z,100026.73
2019-01-16T14:04:29.160Z,100024.56
2019-01-16T14:07:22.613Z,100029.93
2019-01-16T14:10:13.716Z,100017.77
2019-01-16T14:13:03.434Z,100020.03
2019-01-16T14:15:59.423Z,100028.72
2019-01-16T14:18:39.626Z,100014.68
2019-01-16T14:21:26.316Z,100018.59
2019-01-16T14:24:06.395Z,100019.21
2019-01-16T14:26:52.861Z,100022.58
2019-01-16T14:29:29.479Z,100023.02
2019-01-16T14:32:16.482Z,100009.60
2019-01-16T14:35:10.775Z,100010.77
2019-01-16T14:38:07.375Z,100004.24
2019-01-16T14:40:52.317Z,100006.98
2019-01-16T14:43:44.938Z,99999.95
2019-01-16T14:46:32.190Z,100004.07
2019-01-16T14:49:17.588Z,100003.94
2019-01-16T14:52:03.573Z,100011.97
2019-01-16T14:54:53.973Z,99997.27
2019-01-16T14:57:39.750Z,99993.53
2019-01-16T15:00:29.332Z,99991.67
2019-01-16T15:03:22.281Z,99989.38
2019-01-16T15:06:13.912Z,99991.56
2019-01-16T15:09:01.843Z,100002.48
2019-01-16T15:11:52.242Z,99997.42
2019-01-16T15:14:48.340Z,99992.77
2019-01-16T15:17:39.523Z,99991.27
2019-01-16T15:20:35.978Z,100005.50
2019-01-16T15:23:22.359Z,99998.48
2019-01-16T15:26:11.930Z,99989.47
2019-01-16T15:28:57.967Z,99989.31
2019-01-16T15:31:36.447Z,99989.77
2019-01-16T15:34:18.655Z,99983.86
2019-01-16T15:37:05.145Z,99977.63
2019-01-16T15:39:50.690Z,99987.48
2019-01-16T15:42:48.037Z,99982.26
2019-01-16T15:45:26.671Z,99976.04
2019-01-16T15:48:22.620Z,99973.53
2019-01-16T15:51:15.138Z,99978.27
2019-01-16T15:53:49.370Z,99974.44
2019-01-16T15:56:28.110Z,99972.50
2019-01-16T15:59:04.783Z,99982.00
2019-01-16T16:01:50.383Z,99957.39
2019-01-16T16:04:36.162Z,99965.13
2019-01-16T16:07:22.655Z,99953.14
2019-01-16T16:10:09.567Z,99955.56
2019-01-16T16:12:53.610Z,99960.80
2019-01-16T16:15:45.437Z,99945.83
2019-01-16T16:18:42.051Z,99950.34
2019-01-16T16:21:35.618Z,99940.45
2019-01-16T16:24:10.842Z,99958.32
2019-01-16T16:26:58.633Z,99939.55
2019-01-16T16:29:55.956Z,99943.32
2019-01-16T16:32:51.746Z,99926.58
2019-01-16T16:35:40.961Z,99931.69
2019-01-16T16:38:26.851Z,99921.02
2019-01-16T16:41:16.051Z,99930.56
2019-01-16T16:44:12.639Z,99912.45
2019-01-16T16:47:08.863Z,99916.50
2019-01-16T16:49:55.551Z,99905.49
2019-01-16T16:52:54.626Z,99916.73
2019-01-16T16:56:01.102Z,99918.47
2019-01-16T16:58:45.907Z,99904.86
2019-01-16T17:01:40.730Z,99897.66
2019-01-16T17:04:45.575Z,99900.60
2019-01-16T17:07:30.802Z,99892.58
2019-01-16T17:10:11.728Z,99881.02
2019-01-16T17:13:04.364Z,99872.61
2019-01-16T17:16:10.179Z,99868.55
2019-01-16T17:18:57.076Z,99839.82
2019-01-16T17:21:41.135Z,99872.95
2019-01-16T17:24:29.603Z,99878.45
2019-01-16T17:27:28.786Z,99882.17
2019-01-16T17:30:18.794Z,99861.91
2019-01-16T17:33:03.119Z,99852.95
2019-01-16T17:35:37.966Z,99848.03
2019-01-16T17:38:18.815Z,99858.16
2019-01-16T17:40:58.249Z,99842.19
2019-01-16T17:43:46.497Z,99841.31
2019-01-16T17:46:51.303Z,99843.41
2019-01-16T17:49:33.263Z,99839.64
2019-01-16T17:52:21.002Z,99832.17
2019-01-16T17:55:20.686Z,99832.54
2019-01-16T17:58:07.710Z,99828.28
2019-01-16T18:00:52.814Z,99827.75
2019-01-16T18:03:43.833Z,99814.55
2019-01-16T18:06:42.565Z,99809.71
2019-01-16T18:09:32.060Z,99799.46
2019-01-16T18:12:07.473Z,99799.97
2019-01-16T18:14:52.487Z,99797.02
2019-01-16T18:17:38.373Z,99794.14
2019-01-16T18:20:24.515Z,99782.64
2019-01-16T18:23:14.948Z,99786.30
2019-01-16T18:25:52.239Z,99789.39
2019-01-16T18:28:45.287Z,99781.92
2019-01-16T18:31:51.068Z,99786.06
2019-01-16T18:34:39.055Z,99785.08
2019-01-16T18:37:34.938Z,99781.00
2019-01-16T18:40:20.612Z,99784.42
2019-01-16T18:43:10.380Z,99781.73
2019-01-16T18:46:11.165Z,99771.76
2019-01-16T18:48:58.199Z,99773.67
2019-01-16T18:51:44.895Z,99764.80
2019-01-16T18:54:47.042Z,99756.43
2019-01-16T18:57:42.545Z,99759.11
2019-01-16T19:00:32.795Z,99754.25
2019-01-16T19:03:38.367Z,99746.84
2019-01-16T19:06:37.165Z,99760.81
2019-01-16T19:09:29.155Z,99746.47
2019-01-16T19:12:14.692Z,99741.98
2019-01-16T19:14:58.784Z,99741.50
2019-01-16T19:17:45.429Z,99744.98
2019-01-16T19:20:38.162Z,99731.47
2019-01-16T19:23:32.659Z,99714.98
2019-01-16T19:26:29.322Z,99729.42
2019-01-16T19:29:16.943Z,99717.88
2019-01-16T19:32:02.533Z,99717.42
2019-01-16T19:34:55.526Z,99722.05
2019-01-16T19:37:40.206Z,99714.98
2019-01-16T19:40:27.979Z,99719.06
2019-01-16T19:43:13.526Z,99714.10
2019-01-16T19:46:05.278Z,99719.49
2019-01-16T19:48:58.118Z,99725.81
2019-01-16T19:51:43.846Z,99712.98
2019-01-16T19:54:29.703Z,99707.33
2019-01-16T19:57:15.294Z,99728.25
2019-01-16T20:00:08.268Z,99693.86
2019-01-16T20:02:56.263Z,99688.19
2019-01-16T20:05:43.603Z,99684.16
2019-01-16T20:08:29.450Z,99686.92
2019-01-16T20:11:14.633Z,99690.80
2019-01-16T20:14:06.136Z,99674.92
2019-01-16T20:16:45.282Z,99677.89
2019-01-16T20:19:24.085Z,99671.15
2019-01-16T20:22:10.652Z,99668.92
2019-01-16T20:24:56.358Z,99672.74
2019-01-16T20:27:48.589Z,99670.19
2019-01-16T20:30:41.409Z,99658.27
2019-01-16T20:33:34.737Z,99655.25
2019-01-16T20:36:20.025Z,99649.89
2019-01-16T20:39:24.276Z,99649.58
2019-01-16T20:42:09.497Z,99636.65
2019-01-16T20:45:11.720Z,99625.47
2019-01-16T20:47:58.186Z,99633.44
2019-01-16T20:50:47.902Z,99631.92
2019-01-16T20:53:23.389Z,99624.27
2019-01-16T20:56:15.845Z,99622.34
2019-01-16T20:59:09.140Z,99632.85
2019-01-16T21:01:47.657Z,99612.23
2019-01-16T21:04:40.691Z,99617.97
2019-01-16T21:07:26.612Z,99613.56
2019-01-16T21:10:01.085Z,99610.98
2019-01-16T21:12:39.708Z,99589.73
2019-01-16T21:15:38.103Z,99583.16
2019-01-16T21:18:24.790Z,99599.88
2019-01-16T21:21:08.427Z,99589.02
2019-01-16T21:23:59.794Z,99579.77
2019-01-16T21:26:45.056Z,99585.06
2019-01-16T21:29:25.118Z,99578.12
2019-01-16T21:32:06.994Z,99580.11
2019-01-16T21:34:52.430Z,99577.16
2019-01-16T21:37:45.272Z,99563.47
2019-01-16T21:40:37.971Z,99554.55
2019-01-16T21:43:17.805Z,99544.49
2019-01-16T21:46:06.047Z,99546.58
2019-01-16T21:49:01.805Z,99549.89
2019-01-16T21:51:58.211Z,99551.09
2019-01-16T21:54:54.471Z,99546.39
2019-01-16T21:57:34.937Z,99533.92
2019-01-16T22:00:34.335Z,99528.81
2019-01-16T22:03:17.955Z,99547.08
2019-01-16T22:06:04.844Z,99528.97
2019-01-16T22:08:57.681Z,99530.05
2019-01-16T22:11:59.557Z,99530.85
2019-01-16T22:14:38.736Z,99517.34
2019-01-16T22:17:29.787Z,99532.02
2019-01-16T22:20:15.329Z,99522.52
2019-01-16T22:22:50.772Z,99524.62
2019-01-16T22:25:43.932Z,99522.48
2019-01-16T22:28:29.101Z,99517.78
2019-01-16T22:31:24.602Z,99514.30
2019-01-16T22:34:09.890Z,99511.30
2019-01-16T22:37:04.211Z,99523.45
2019-01-16T22:39:49.820Z,99497.23
2019-01-16T22:42:28.511Z,99507.80
2019-01-16T22:45:18.261Z,99493.09
2019-01-16T22:48:00.974Z,99484.30
2019-01-16T22:50:47.230Z,99500.89
2019-01-16T22:53:35.869Z,99494.70
2019-01-16T22:56:14.634Z,99504.33
2019-01-16T22:58:57.266Z,99482.02
2019-01-16T23:01:44.216Z,99485.70
2019-01-16T23:04:25.318Z,99484.89
2019-01-16T23:07:07.869Z,99494.30
2019-01-16T23:09:45.415Z,99469.94
2019-01-16T23:12:31.551Z,99484.00
2019-01-16T23:15:25.835Z,99464.23
2019-01-16T23:18:32.825Z,99452.46
2019-01-16T23:21:12.006Z,99457.22
2019-01-16T23:23:57.246Z,99460.84
2019-01-16T23:26:49.885Z,99435.59
2019-01-16T23:29:39.966Z,99444.56
2019-01-16T23:32:24.723Z,99429.73
2019-01-16T23:35:04.091Z,99439.28
2019-01-16T23:38:00.547Z,99461.02
2019-01-16T23:40:47.648Z,99452.98
2019-01-16T23:43:32.849Z,99430.34
2019-01-16T23:46:16.726Z,99424.07
2019-01-16T23:49:02.086Z,99415.79
2019-01-16T23:51:51.952Z,99416.13
2019-01-16T23:54:34.914Z,99404.75
2019-01-16T23:57:24.161Z,99456.19
